createdAt,value
2022-09-24T00:01:24.133Z,10.18
2022-09-24T00:04:27.645Z,9.90
2022-09-24T00:07:28.715Z,11.07
2022-09-24T00:10:29.846Z,12.25
2022-09-24T00:13:32.766Z,11.10
2022-09-24T00:16:34.861Z,10.52
2022-09-24T00:19:36.022Z,10.07
2022-09-24T00:22:37.039Z,9.48
2022-09-24T00:26:24.907Z,9.23
2022-09-24T00:29:26.523Z,9.32
2022-09-24T00:32:27.690Z,8.45
2022-09-24T00:35:28.680Z,10.30
2022-09-24T00:38:30.456Z,8.57
2022-09-24T00:41:34.808Z,9.35
2022-09-24T00:44:49.149Z,8.63
2022-09-24T00:47:53.632Z,8.40
2022-09-24T00:50:55.562Z,7.85
2022-09-24T00:54:06.638Z,8.43
2022-09-24T00:57:08.078Z,7.53
2022-09-24T01:00:10.651Z,7.95
2022-09-24T01:03:21.179Z,8.02
2022-09-24T01:06:22.217Z,8.05
2022-09-24T01:09:26.683Z,8.80
2022-09-24T01:13:02.582Z,8.55
2022-09-24T01:16:55.143Z,8.20
2022-09-24T01:20:47.127Z,8.30
2022-09-24T01:24:26.184Z,7.10
2022-09-24T01:28:14.064Z,7.43
2022-09-24T01:31:25.498Z,7.93
2022-09-24T01:34:48.130Z,8.48
2022-09-24T01:37:56.935Z,8.30
2022-09-24T01:41:03.335Z,8.02
2022-09-24T01:44:07.786Z,9.32
2022-09-24T01:47:13.247Z,9.15
2022-09-24T01:50:19.042Z,8.27
2022-09-24T01:53:26.998Z,8.50
2022-09-24T01:56:38.605Z,8.15
2022-09-24T01:59:51.904Z,7.65
2022-09-24T02:03:15.175Z,6.68
2022-09-24T02:06:36.578Z,7.38
2022-09-24T02:09:41.688Z,8.45
2022-09-24T02:12:49.835Z,11.40
2022-09-24T02:15:58.627Z,8.60
2022-09-24T02:19:10.363Z,9.73
2022-09-24T02:22:14.605Z,9.93
2022-09-24T02:25:22.455Z,10.00
2022-09-24T02:28:23.265Z,11.20
2022-09-24T02:31:37.465Z,13.30
2022-09-24T02:34:47.335Z,12.68
2022-09-24T02:37:48.332Z,13.63
2022-09-24T02:40:50.987Z,15.05
2022-09-24T02:43:52.815Z,13.73
2022-09-24T02:46:53.865Z,14.15
2022-09-24T02:49:56.172Z,15.90
2022-09-24T02:52:56.875Z,16.55
2022-09-24T02:56:00.991Z,16.05
2022-09-24T02:59:02.981Z,17.23
2022-09-24T03:02:04.251Z,16.33
2022-09-24T03:05:05.562Z,14.98
2022-09-24T03:08:07.718Z,15.00
2022-09-24T03:11:15.085Z,17.20
2022-09-24T03:14:18.966Z,17.83
2022-09-24T03:17:20.179Z,19.95
2022-09-24T03:20:21.050Z,20.33
2022-09-24T03:23:21.836Z,23.17
2022-09-24T03:26:22.798Z,26.42
2022-09-24T03:29:43.721Z,25.05
2022-09-24T03:32:44.789Z,26.65
2022-09-24T03:35:45.660Z,26.75
2022-09-24T03:38:48.628Z,26.17
2022-09-24T03:41:49.682Z,28.15
2022-09-24T03:44:53.143Z,27.20
2022-09-24T03:47:54.840Z,26.17
2022-09-24T03:50:56.142Z,25.25
2022-09-24T03:53:56.976Z,25.95
2022-09-24T03:56:57.682Z,22.92
2022-09-24T03:59:59.543Z,24.45
2022-09-24T04:03:00.216Z,23.23
2022-09-24T04:06:00.954Z,22.75
2022-09-24T04:09:01.739Z,24.10
2022-09-24T04:12:02.652Z,23.35
2022-09-24T04:15:04.958Z,22.23
2022-09-24T04:18:06.339Z,25.33
2022-09-24T04:21:07.732Z,26.67
2022-09-24T04:24:08.891Z,26.33
2022-09-24T04:27:10.054Z,27.63
2022-09-24T04:30:13.728Z,27.30
2022-09-24T04:33:14.594Z,26.95
2022-09-24T04:36:16.028Z,29.13
2022-09-24T04:39:17.202Z,26.55
2022-09-24T04:42:18.988Z,26.20
2022-09-24T04:45:21.167Z,27.70
2022-09-24T04:48:22.436Z,26.88
2022-09-24T04:51:23.541Z,26.67
2022-09-24T04:54:25.693Z,27.08
2022-09-24T04:57:28.837Z,23.25
2022-09-24T05:00:31.784Z,21.42
2022-09-24T05:03:33.303Z,21.25
2022-09-24T05:06:34.246Z,20.00
2022-09-24T05:09:35.150Z,20.13
2022-09-24T05:12:36.679Z,18.20
2022-09-24T05:15:42.866Z,16.35
2022-09-24T05:18:44.149Z,14.52
2022-09-24T05:21:45.253Z,13.13
2022-09-24T05:24:45.967Z,13.02
2022-09-24T05:27:50.108Z,13.00
2022-09-24T05:30:51.148Z,11.95
2022-09-24T05:33:52.006Z,13.48
2022-09-24T05:36:53.187Z,14.30
2022-09-24T05:39:54.987Z,14.50
2022-09-24T05:43:04.932Z,15.45
2022-09-24T05:46:06.570Z,15.45
2022-09-24T05:49:07.562Z,14.60
2022-09-24T05:52:08.600Z,11.98
2022-09-24T05:55:10.807Z,11.57
2022-09-24T05:58:14.535Z,11.50
2022-09-24T06:01:15.406Z,13.13
2022-09-24T06:04:17.180Z,13.02
2022-09-24T06:07:18.094Z,14.27
2022-09-24T06:10:19.064Z,15.02
2022-09-24T06:13:21.143Z,13.90
2022-09-24T06:16:21.825Z,13.05
2022-09-24T06:19:23.550Z,13.73
2022-09-24T06:22:28.405Z,14.20
2022-09-24T06:25:31.249Z,14.50
2022-09-24T06:28:32.228Z,15.23
2022-09-24T06:31:34.381Z,14.95
2022-09-24T06:34:35.234Z,14.15
2022-09-24T06:37:36.621Z,15.70
2022-09-24T06:40:39.310Z,13.93
2022-09-24T06:43:40.399Z,12.50
2022-09-24T06:46:41.304Z,13.18
2022-09-24T06:49:42.595Z,13.18
2022-09-24T06:52:43.910Z,12.23
2022-09-24T06:55:46.939Z,12.68
2022-09-24T06:58:48.001Z,13.40
2022-09-24T07:01:48.824Z,13.35
2022-09-24T07:04:49.728Z,14.32
2022-09-24T07:07:50.427Z,13.85
2022-09-24T07:10:52.671Z,14.80
2022-09-24T07:13:53.659Z,13.88
2022-09-24T07:16:54.627Z,14.32
2022-09-24T07:19:56.007Z,14.52
2022-09-24T07:22:57.125Z,15.30
2022-09-24T07:25:59.275Z,14.10
2022-09-24T07:29:00.652Z,15.07
2022-09-24T07:32:03.498Z,14.93
2022-09-24T07:35:05.334Z,14.55
2022-09-24T07:38:12.525Z,14.68
2022-09-24T07:41:13.496Z,14.25
2022-09-24T07:44:14.302Z,13.75
2022-09-24T07:47:15.964Z,13.55
2022-09-24T07:50:18.500Z,15.10
2022-09-24T07:53:19.821Z,15.38
2022-09-24T07:56:22.009Z,15.40
2022-09-24T07:59:23.073Z,14.80
2022-09-24T08:02:25.115Z,12.88
2022-09-24T08:05:26.502Z,12.40
2022-09-24T08:08:27.884Z,13.00
2022-09-24T08:11:29.844Z,12.93
2022-09-24T08:14:30.885Z,11.27
2022-09-24T08:17:32.231Z,12.18
2022-09-24T08:20:34.435Z,11.88
2022-09-24T08:23:36.599Z,11.73
2022-09-24T08:26:37.688Z,12.60
2022-09-24T08:29:40.558Z,11.57
2022-09-24T08:32:49.116Z,11.43
2022-09-24T08:35:50.754Z,12.05
2022-09-24T08:38:55.395Z,11.27
2022-09-24T08:42:02.792Z,11.88
2022-09-24T08:45:25.703Z,11.77
2022-09-24T08:48:33.959Z,12.90
2022-09-24T08:51:51.337Z,13.13
2022-09-24T08:54:57.032Z,12.95
2022-09-24T08:58:38.171Z,11.43
2022-09-24T09:01:53.921Z,12.18
2022-09-24T09:04:58.163Z,12.73
2022-09-24T09:08:27.259Z,11.63
2022-09-24T09:11:33.570Z,11.82
2022-09-24T09:15:04.066Z,11.10
2022-09-24T09:18:37.798Z,10.82
2022-09-24T09:21:52.691Z,10.10
2022-09-24T09:25:03.512Z,8.15
2022-09-24T09:28:25.791Z,9.82
2022-09-24T09:31:47.152Z,9.75
2022-09-24T09:35:16.237Z,9.88
2022-09-24T09:38:38.563Z,9.23
2022-09-24T09:41:47.145Z,9.45
2022-09-24T09:44:48.746Z,8.60
2022-09-24T09:47:55.604Z,8.52
2022-09-24T09:51:05.157Z,8.50
2022-09-24T09:54:06.679Z,7.95
2022-09-24T09:57:15.385Z,8.75
2022-09-24T10:00:34.792Z,7.55
2022-09-24T10:03:47.055Z,7.63
2022-09-24T10:06:47.789Z,7.95
2022-09-24T10:10:15.138Z,7.45
2022-09-24T10:16:17.475Z,7.80
2022-09-24T10:19:27.899Z,7.50
2022-09-24T10:22:30.790Z,7.00
2022-09-24T10:25:34.180Z,7.20
2022-09-24T10:29:04.012Z,7.78
2022-09-24T10:32:07.189Z,6.70
2022-09-24T10:35:32.574Z,9.10
2022-09-24T10:38:34.480Z,8.50
2022-09-24T10:41:36.128Z,6.45
2022-09-24T10:44:37.813Z,8.00
2022-09-24T10:48:24.605Z,8.32
2022-09-24T10:51:46.945Z,8.30
2022-09-24T10:55:06.465Z,7.85
2022-09-24T10:58:29.749Z,6.65
2022-09-24T11:02:10.255Z,6.40
2022-09-24T11:05:23.759Z,5.65
2022-09-24T11:08:59.062Z,5.28
2022-09-24T11:12:39.925Z,6.18
2022-09-24T11:15:55.740Z,6.43
2022-09-24T11:19:18.124Z,5.45
2022-09-24T11:22:40.171Z,5.15
2022-09-24T11:26:04.202Z,5.00
2022-09-24T11:29:49.230Z,6.05
2022-09-24T11:33:28.475Z,5.38
2022-09-24T11:36:35.726Z,5.38
2022-09-24T11:40:33.342Z,4.82
2022-09-24T11:44:03.065Z,4.38
2022-09-24T11:47:22.113Z,3.63
2022-09-24T11:50:29.022Z,3.30
2022-09-24T11:53:55.068Z,3.20
2022-09-24T11:57:03.736Z,3.45
2022-09-24T12:00:20.376Z,4.28
2022-09-24T12:03:35.149Z,4.63
2022-09-24T12:06:58.095Z,4.47
2022-09-24T12:10:30.014Z,3.75
2022-09-24T12:13:41.325Z,3.40
2022-09-24T12:16:47.839Z,3.88
2022-09-24T12:20:02.169Z,3.10
2022-09-24T12:23:11.563Z,3.55
2022-09-24T12:26:17.173Z,4.03
2022-09-24T12:30:16.414Z,4.65
2022-09-24T12:33:45.838Z,3.95
2022-09-24T12:37:09.188Z,4.53
2022-09-24T12:40:22.619Z,4.15
2022-09-24T12:43:41.348Z,4.00
2022-09-24T12:46:58.759Z,3.72
2022-09-24T12:50:05.204Z,4.10
2022-09-24T12:53:24.956Z,3.83
2022-09-24T12:56:30.155Z,2.88
2022-09-24T12:59:31.395Z,3.90
2022-09-24T13:02:46.922Z,3.95
2022-09-24T13:05:48.967Z,4.18
2022-09-24T13:08:50.736Z,3.70
2022-09-24T13:12:20.927Z,3.63
2022-09-24T13:15:34.696Z,3.90
2022-09-24T13:18:37.533Z,3.80
2022-09-24T13:21:40.865Z,3.25
2022-09-24T13:25:09.303Z,3.92
2022-09-24T13:28:37.736Z,3.78
2022-09-24T13:31:52.479Z,3.17
2022-09-24T13:34:54.871Z,4.15
2022-09-24T13:38:29.336Z,3.90
2022-09-24T13:41:36.272Z,3.78
2022-09-24T13:45:16.071Z,3.38
2022-09-24T13:48:50.494Z,3.60
2022-09-24T13:52:49.999Z,3.88
2022-09-24T13:55:59.556Z,3.92
2022-09-24T13:59:12.913Z,3.22
2022-09-24T14:02:26.334Z,3.28
2022-09-24T14:05:29.309Z,3.42
2022-09-24T14:08:30.528Z,3.78
2022-09-24T14:11:31.150Z,4.50
2022-09-24T14:14:35.769Z,4.00
2022-09-24T14:17:36.520Z,3.20
2022-09-24T14:20:37.407Z,3.45
2022-09-24T14:24:04.367Z,3.22
2022-09-24T14:27:13.053Z,3.15
2022-09-24T14:30:26.926Z,3.10
2022-09-24T14:33:33.003Z,3.33
2022-09-24T14:36:36.743Z,3.75
2022-09-24T14:39:43.760Z,3.78
2022-09-24T14:45:52.476Z,3.30
2022-09-24T14:49:20.428Z,3.55
2022-09-24T14:52:39.773Z,3.80
2022-09-24T14:55:45.531Z,4.00
2022-09-24T14:58:46.613Z,4.05
2022-09-24T15:01:47.882Z,3.75
2022-09-24T15:05:00.713Z,4.45
2022-09-24T15:08:24.818Z,3.63
2022-09-24T15:11:29.361Z,4.40
2022-09-24T15:14:34.613Z,4.20
2022-09-24T15:17:36.506Z,3.67
2022-09-24T15:20:38.827Z,4.15
2022-09-24T15:23:39.956Z,4.43
2022-09-24T15:26:45.723Z,6.20
2022-09-24T15:29:47.203Z,6.90
2022-09-24T15:32:52.537Z,7.72
2022-09-24T15:35:54.217Z,8.00
2022-09-24T15:39:02.031Z,8.00
2022-09-24T15:42:03.342Z,9.00
2022-09-24T15:45:22.631Z,9.57
2022-09-24T15:48:23.647Z,8.65
2022-09-24T15:51:24.656Z,9.57
2022-09-24T15:54:25.576Z,11.20
2022-09-24T15:57:26.917Z,9.98
2022-09-24T16:00:28.630Z,9.90
2022-09-24T16:03:32.807Z,11.52
2022-09-24T16:06:33.941Z,11.30
2022-09-24T16:09:34.676Z,11.10
2022-09-24T16:12:36.340Z,10.88
2022-09-24T16:15:38.484Z,12.52
2022-09-24T16:18:40.880Z,11.10
2022-09-24T16:21:41.997Z,10.65
2022-09-24T16:24:42.764Z,13.43
2022-09-24T16:27:44.154Z,11.50
2022-09-24T16:30:45.185Z,11.65
2022-09-24T16:33:47.094Z,12.35
2022-09-24T16:36:48.156Z,13.38
2022-09-24T16:39:49.107Z,12.30
2022-09-24T16:42:49.988Z,11.93
2022-09-24T16:45:51.391Z,12.05
2022-09-24T16:48:52.556Z,12.10
2022-09-24T16:51:53.961Z,12.23
2022-09-24T16:54:55.012Z,13.38
2022-09-24T16:57:55.945Z,12.80
2022-09-24T17:00:56.671Z,12.82
2022-09-24T17:03:58.920Z,14.45
2022-09-24T17:06:59.840Z,13.13
2022-09-24T17:10:16.266Z,14.60
2022-09-24T17:13:18.282Z,13.27
2022-09-24T17:16:19.430Z,15.10
2022-09-24T17:19:20.452Z,14.30
2022-09-24T17:22:21.209Z,14.85
2022-09-24T17:25:22.047Z,14.30
2022-09-24T17:28:22.909Z,15.63
2022-09-24T17:31:25.867Z,15.60
2022-09-24T17:34:27.653Z,17.02
2022-09-24T17:37:29.287Z,16.42
2022-09-24T17:40:30.455Z,16.65
2022-09-24T17:43:31.508Z,15.90
2022-09-24T17:46:35.554Z,15.52
2022-09-24T17:49:36.271Z,14.60
2022-09-24T17:52:36.955Z,16.63
2022-09-24T17:55:38.055Z,17.42
2022-09-24T17:58:42.264Z,18.80
2022-09-24T18:01:44.979Z,20.40
2022-09-24T18:04:46.511Z,19.30
2022-09-24T18:07:47.264Z,19.02
2022-09-24T18:11:03.710Z,19.27
2022-09-24T18:14:04.827Z,19.33
2022-09-24T18:17:06.619Z,21.98
2022-09-24T18:20:07.908Z,22.00
2022-09-24T18:23:08.753Z,24.42
2022-09-24T18:26:17.587Z,25.25
2022-09-24T18:29:19.356Z,27.15
2022-09-24T18:32:20.631Z,26.23
2022-09-24T18:35:21.496Z,28.52
2022-09-24T18:38:22.430Z,27.13
2022-09-24T18:41:27.633Z,26.42
2022-09-24T18:44:28.911Z,26.55
2022-09-24T18:47:29.697Z,27.05
2022-09-24T18:50:30.616Z,29.15
2022-09-24T18:53:32.240Z,28.95
2022-09-24T18:56:34.397Z,30.42
2022-09-24T18:59:44.281Z,30.33
2022-09-24T19:02:45.311Z,31.95
2022-09-24T19:05:47.787Z,31.92
2022-09-24T19:08:49.284Z,32.75
2022-09-24T19:11:50.376Z,31.70
2022-09-24T19:14:54.250Z,31.58
2022-09-24T19:17:55.523Z,32.00
2022-09-24T19:20:57.486Z,33.17
2022-09-24T19:24:00.043Z,32.42
2022-09-24T19:27:01.172Z,32.22
2022-09-24T19:30:01.848Z,32.60
2022-09-24T19:33:03.210Z,30.27
2022-09-24T19:36:04.765Z,31.48
2022-09-24T19:39:05.897Z,32.30
2022-09-24T19:42:07.504Z,34.45
2022-09-24T19:45:09.033Z,34.92
2022-09-24T19:48:10.389Z,33.85
2022-09-24T19:51:31.033Z,35.17
2022-09-24T19:54:31.739Z,34.63
2022-09-24T19:57:35.808Z,34.47
2022-09-24T20:00:39.116Z,30.63
2022-09-24T20:03:40.483Z,29.08
2022-09-24T20:06:41.743Z,32.72
2022-09-24T20:09:42.581Z,34.45
2022-09-24T20:12:46.756Z,35.08
2022-09-24T20:15:47.741Z,32.60
2022-09-24T20:18:51.047Z,37.97
2022-09-24T20:21:53.248Z,42.45
2022-09-24T20:24:54.210Z,38.95
2022-09-24T20:27:55.568Z,37.40
2022-09-24T20:30:56.707Z,36.40
2022-09-24T20:33:57.703Z,35.38
2022-09-24T20:37:01.044Z,33.47
2022-09-24T20:40:02.504Z,30.80
2022-09-24T20:43:04.176Z,34.50
2022-09-24T20:46:32.024Z,34.00
2022-09-24T20:49:34.914Z,27.80
2022-09-24T20:52:36.538Z,29.58
2022-09-24T20:55:39.615Z,25.77
2022-09-24T20:58:41.996Z,24.77
2022-09-24T21:01:44.883Z,26.25
2022-09-24T21:04:45.958Z,26.08
2022-09-24T21:07:46.951Z,30.83
2022-09-24T21:10:47.666Z,30.30
2022-09-24T21:13:52.228Z,32.22
2022-09-24T21:16:55.249Z,32.47
2022-09-24T21:19:56.556Z,32.30
2022-09-24T21:22:59.441Z,33.80
2022-09-24T21:26:24.103Z,30.52
2022-09-24T21:29:25.159Z,31.27
2022-09-24T21:32:25.875Z,31.15
2022-09-24T21:35:27.174Z,30.98
2022-09-24T21:38:28.402Z,28.15
2022-09-24T21:41:37.522Z,27.30
2022-09-24T21:44:38.901Z,27.63
2022-09-24T21:47:40.207Z,29.80
2022-09-24T21:50:40.917Z,29.83
2022-09-24T21:53:41.718Z,33.35
2022-09-24T21:56:43.206Z,31.95
2022-09-24T22:00:04.048Z,29.60
2022-09-24T22:03:05.973Z,30.80
2022-09-24T22:06:07.147Z,32.70
2022-09-24T22:09:09.237Z,29.70
2022-09-24T22:12:10.511Z,29.48
2022-09-24T22:15:11.381Z,27.52
2022-09-24T22:18:12.276Z,28.35
2022-09-24T22:21:15.042Z,27.48
2022-09-24T22:24:16.272Z,25.88
2022-09-24T22:27:17.516Z,24.77
2022-09-24T22:30:18.848Z,22.60
2022-09-24T22:33:38.993Z,19.70
2022-09-24T22:36:40.638Z,18.00
2022-09-24T22:39:41.414Z,17.10
2022-09-24T22:42:42.133Z,17.15
2022-09-24T22:45:43.769Z,16.17
2022-09-24T22:48:45.603Z,17.10
2022-09-24T22:51:46.592Z,15.02
2022-09-24T22:54:47.458Z,14.57
2022-09-24T22:57:48.528Z,15.65
2022-09-24T23:00:49.587Z,14.30
2022-09-24T23:03:56.187Z,14.73
2022-09-24T23:06:57.020Z,14.43
2022-09-24T23:09:57.860Z,15.65
2022-09-24T23:12:58.441Z,14.48
2022-09-24T23:16:17.222Z,15.75
2022-09-24T23:19:20.464Z,15.43
2022-09-24T23:22:22.715Z,15.85
2022-09-24T23:25:23.887Z,15.40
2022-09-24T23:28:24.745Z,14.35
2022-09-24T23:31:32.620Z,14.60
2022-09-24T23:34:33.278Z,14.35
2022-09-24T23:37:34.126Z,15.35
2022-09-24T23:40:35.085Z,15.88
2022-09-24T23:43:36.455Z,15.88
2022-09-24T23:46:38.265Z,16.80
2022-09-24T23:49:39.529Z,17.13
2022-09-24T23:52:40.361Z,16.25
2022-09-24T23:55:46.425Z,16.48
2022-09-24T23:58:48.050Z,16.83
